sensor_id;sensor_type;location;lat;lon;timestamp;P1;durP1;ratioP1;P2;durP2;ratioP2
64826;SDS011;51265;53.972;12.286;2023-09-18T00:00:58;14.25;;;11.13;;
64826;SDS011;51265;53.972;12.286;2023-09-18T00:03:24;16.50;;;11.00;;
64826;SDS011;51265;53.972;12.286;2023-09-18T00:05:51;16.95;;;11.85;;
64826;SDS011;51265;53.972;12.286;2023-09-18T00:08:18;14.95;;;11.27;;
64826;SDS011;51265;53.972;12.286;2023-09-18T00:10:52;16.98;;;11.00;;
64826;SDS011;51265;53.972;12.286;2023-09-18T00:13:19;14.75;;;11.68;;
64826;SDS011;51265;53.972;12.286;2023-09-18T00:15:46;17.73;;;11.32;;
64826;SDS011;51265;53.972;12.286;2023-09-18T00:18:14;17.85;;;11.50;;
64826;SDS011;51265;53.972;12.286;2023-09-18T00:20:41;13.55;;;11.07;;
64826;SDS011;51265;53.972;12.286;2023-09-18T00:23:08;16.25;;;11.55;;
64826;SDS011;51265;53.972;12.286;2023-09-18T00:25:35;13.63;;;10.80;;
64826;SDS011;51265;53.972;12.286;2023-09-18T00:28:02;15.65;;;11.70;;
64826;SDS011;51265;53.972;12.286;2023-09-18T00:30:29;14.30;;;11.25;;
64826;SDS011;51265;53.972;12.286;2023-09-18T00:32:55;16.30;;;11.00;;
64826;SDS011;51265;53.972;12.286;2023-09-18T00:35:21;17.45;;;11.20;;
64826;SDS011;51265;53.972;12.286;2023-09-18T00:37:49;12.70;;;11.20;;
64826;SDS011;51265;53.972;12.286;2023-09-18T00:40:15;15.00;;;11.82;;
64826;SDS011;51265;53.972;12.286;2023-09-18T00:42:41;16.10;;;11.52;;
64826;SDS011;51265;53.972;12.286;2023-09-18T00:45:07;15.40;;;11.52;;
64826;SDS011;51265;53.972;12.286;2023-09-18T00:47:35;13.48;;;11.82;;
64826;SDS011;51265;53.972;12.286;2023-09-18T00:50:03;15.77;;;11.90;;
64826;SDS011;51265;53.972;12.286;2023-09-18T00:52:31;17.90;;;11.98;;
64826;SDS011;51265;53.972;12.286;2023-09-18T00:54:59;13.65;;;11.82;;
64826;SDS011;51265;53.972;12.286;2023-09-18T00:57:26;16.77;;;12.13;;
64826;SDS011;51265;53.972;12.286;2023-09-18T00:59:55;15.77;;;11.43;;
64826;SDS011;51265;53.972;12.286;2023-09-18T01:02:21;15.02;;;11.85;;
64826;SDS011;51265;53.972;12.286;2023-09-18T01:04:48;14.55;;;11.35;;
64826;SDS011;51265;53.972;12.286;2023-09-18T01:07:19;15.43;;;11.75;;
64826;SDS011;51265;53.972;12.286;2023-09-18T01:09:45;15.05;;;11.85;;
64826;SDS011;51265;53.972;12.286;2023-09-18T01:17:40;15.95;;;12.10;;
64826;SDS011;51265;53.972;12.286;2023-09-18T01:20:11;16.80;;;11.85;;
64826;SDS011;51265;53.972;12.286;2023-09-18T01:22:37;18.17;;;11.60;;
64826;SDS011;51265;53.972;12.286;2023-09-18T01:25:04;14.45;;;11.95;;
64826;SDS011;51265;53.972;12.286;2023-09-18T01:27:32;14.23;;;11.80;;
64826;SDS011;51265;53.972;12.286;2023-09-18T01:29:58;17.83;;;12.45;;
64826;SDS011;51265;53.972;12.286;2023-09-18T01:32:26;14.45;;;12.55;;
64826;SDS011;51265;53.972;12.286;2023-09-18T01:34:56;16.33;;;12.90;;
64826;SDS011;51265;53.972;12.286;2023-09-18T01:37:24;16.10;;;11.88;;
64826;SDS011;51265;53.972;12.286;2023-09-18T01:39:53;17.67;;;12.43;;
64826;SDS011;51265;53.972;12.286;2023-09-18T01:42:20;15.82;;;12.13;;
64826;SDS011;51265;53.972;12.286;2023-09-18T01:44:47;19.30;;;12.73;;
64826;SDS011;51265;53.972;12.286;2023-09-18T01:47:14;17.70;;;13.27;;
64826;SDS011;51265;53.972;12.286;2023-09-18T01:49:43;15.93;;;12.45;;
64826;SDS011;51265;53.972;12.286;2023-09-18T01:52:09;16.95;;;12.73;;
64826;SDS011;51265;53.972;12.286;2023-09-18T01:54:36;17.67;;;12.98;;
64826;SDS011;51265;53.972;12.286;2023-09-18T01:57:02;15.60;;;12.60;;
64826;SDS011;51265;53.972;12.286;2023-09-18T01:59:29;16.70;;;12.35;;
64826;SDS011;51265;53.972;12.286;2023-09-18T02:01:56;17.98;;;13.40;;
64826;SDS011;51265;53.972;12.286;2023-09-18T02:04:23;14.50;;;12.23;;
64826;SDS011;51265;53.972;12.286;2023-09-18T02:06:50;15.52;;;12.25;;
64826;SDS011;51265;53.972;12.286;2023-09-18T02:09:16;14.05;;;12.02;;
64826;SDS011;51265;53.972;12.286;2023-09-18T02:11:44;15.60;;;11.93;;
64826;SDS011;51265;53.972;12.286;2023-09-18T02:14:13;16.38;;;11.50;;
64826;SDS011;51265;53.972;12.286;2023-09-18T02:16:40;15.43;;;12.75;;
64826;SDS011;51265;53.972;12.286;2023-09-18T02:19:08;17.40;;;12.40;;
64826;SDS011;51265;53.972;12.286;2023-09-18T02:21:35;13.00;;;11.63;;
64826;SDS011;51265;53.972;12.286;2023-09-18T02:24:02;19.35;;;12.15;;
64826;SDS011;51265;53.972;12.286;2023-09-18T02:26:29;15.38;;;11.52;;
64826;SDS011;51265;53.972;12.286;2023-09-18T02:29:02;13.25;;;11.48;;
64826;SDS011;51265;53.972;12.286;2023-09-18T02:31:30;14.55;;;11.35;;
64826;SDS011;51265;53.972;12.286;2023-09-18T02:33:56;14.50;;;12.02;;
64826;SDS011;51265;53.972;12.286;2023-09-18T02:36:22;16.50;;;11.82;;
64826;SDS011;51265;53.972;12.286;2023-09-18T02:38:49;17.17;;;11.93;;
64826;SDS011;51265;53.972;12.286;2023-09-18T02:41:15;18.05;;;12.25;;
64826;SDS011;51265;53.972;12.286;2023-09-18T02:43:50;15.45;;;12.80;;
64826;SDS011;51265;53.972;12.286;2023-09-18T02:46:17;14.75;;;12.25;;
64826;SDS011;51265;53.972;12.286;2023-09-18T02:48:43;18.70;;;11.85;;
64826;SDS011;51265;53.972;12.286;2023-09-18T02:51:09;16.00;;;11.70;;
64826;SDS011;51265;53.972;12.286;2023-09-18T02:53:35;16.00;;;12.45;;
64826;SDS011;51265;53.972;12.286;2023-09-18T02:56:02;17.13;;;12.55;;
64826;SDS011;51265;53.972;12.286;2023-09-18T02:58:28;13.82;;;12.07;;
64826;SDS011;51265;53.972;12.286;2023-09-18T03:00:56;15.55;;;11.85;;
64826;SDS011;51265;53.972;12.286;2023-09-18T03:03:28;16.55;;;12.77;;
64826;SDS011;51265;53.972;12.286;2023-09-18T03:06:05;16.17;;;12.65;;
64826;SDS011;51265;53.972;12.286;2023-09-18T03:08:33;14.50;;;11.82;;
64826;SDS011;51265;53.972;12.286;2023-09-18T03:10:59;17.95;;;12.45;;
64826;SDS011;51265;53.972;12.286;2023-09-18T03:13:30;15.70;;;12.45;;
64826;SDS011;51265;53.972;12.286;2023-09-18T03:15:57;16.23;;;11.95;;
64826;SDS011;51265;53.972;12.286;2023-09-18T03:18:25;17.63;;;12.10;;
64826;SDS011;51265;53.972;12.286;2023-09-18T03:20:51;15.10;;;12.48;;
64826;SDS011;51265;53.972;12.286;2023-09-18T03:23:18;15.93;;;12.98;;
64826;SDS011;51265;53.972;12.286;2023-09-18T03:25:44;15.20;;;12.90;;
64826;SDS011;51265;53.972;12.286;2023-09-18T03:28:10;16.08;;;12.20;;
64826;SDS011;51265;53.972;12.286;2023-09-18T03:30:37;14.70;;;12.63;;
64826;SDS011;51265;53.972;12.286;2023-09-18T03:33:03;13.90;;;11.98;;
64826;SDS011;51265;53.972;12.286;2023-09-18T03:35:31;15.40;;;12.65;;
64826;SDS011;51265;53.972;12.286;2023-09-18T03:37:57;22.20;;;13.02;;
64826;SDS011;51265;53.972;12.286;2023-09-18T03:40:24;20.10;;;13.48;;
64826;SDS011;51265;53.972;12.286;2023-09-18T03:42:50;15.13;;;12.27;;
64826;SDS011;51265;53.972;12.286;2023-09-18T03:45:16;16.45;;;13.65;;
64826;SDS011;51265;53.972;12.286;2023-09-18T03:47:46;16.00;;;12.85;;
64826;SDS011;51265;53.972;12.286;2023-09-18T03:50:12;15.50;;;12.75;;
64826;SDS011;51265;53.972;12.286;2023-09-18T03:52:39;14.88;;;12.15;;
64826;SDS011;51265;53.972;12.286;2023-09-18T03:55:06;14.63;;;12.68;;
64826;SDS011;51265;53.972;12.286;2023-09-18T03:57:33;17.77;;;12.93;;
64826;SDS011;51265;53.972;12.286;2023-09-18T04:00:00;16.75;;;12.73;;
64826;SDS011;51265;53.972;12.286;2023-09-18T04:02:26;18.17;;;13.73;;
64826;SDS011;51265;53.972;12.286;2023-09-18T04:04:53;14.75;;;12.45;;
64826;SDS011;51265;53.972;12.286;2023-09-18T04:07:20;15.05;;;13.25;;
64826;SDS011;51265;53.972;12.286;2023-09-18T04:09:46;17.70;;;12.93;;
64826;SDS011;51265;53.972;12.286;2023-09-18T04:12:12;17.92;;;12.70;;
64826;SDS011;51265;53.972;12.286;2023-09-18T04:14:39;16.08;;;13.40;;
64826;SDS011;51265;53.972;12.286;2023-09-18T04:17:05;15.15;;;13.48;;
64826;SDS011;51265;53.972;12.286;2023-09-18T04:19:31;16.00;;;13.60;;
64826;SDS011;51265;53.972;12.286;2023-09-18T04:21:58;16.73;;;12.63;;
64826;SDS011;51265;53.972;12.286;2023-09-18T04:24:25;15.05;;;13.43;;
64826;SDS011;51265;53.972;12.286;2023-09-18T04:26:51;16.08;;;13.57;;
64826;SDS011;51265;53.972;12.286;2023-09-18T04:29:18;17.75;;;13.23;;
64826;SDS011;51265;53.972;12.286;2023-09-18T04:31:45;18.92;;;14.15;;
64826;SDS011;51265;53.972;12.286;2023-09-18T04:34:13;17.55;;;13.82;;
64826;SDS011;51265;53.972;12.286;2023-09-18T04:36:40;15.57;;;13.85;;
64826;SDS011;51265;53.972;12.286;2023-09-18T04:39:06;19.15;;;14.57;;
64826;SDS011;51265;53.972;12.286;2023-09-18T04:41:33;17.42;;;13.38;;
64826;SDS011;51265;53.972;12.286;2023-09-18T04:44:02;16.70;;;13.98;;
64826;SDS011;51265;53.972;12.286;2023-09-18T04:46:29;17.42;;;13.57;;
64826;SDS011;51265;53.972;12.286;2023-09-18T04:48:56;15.55;;;13.95;;
64826;SDS011;51265;53.972;12.286;2023-09-18T04:51:22;16.35;;;14.63;;
64826;SDS011;51265;53.972;12.286;2023-09-18T04:53:48;16.05;;;13.35;;
64826;SDS011;51265;53.972;12.286;2023-09-18T04:56:15;17.77;;;14.68;;
64826;SDS011;51265;53.972;12.286;2023-09-18T04:58:41;18.52;;;14.30;;
64826;SDS011;51265;53.972;12.286;2023-09-18T05:01:07;18.20;;;14.02;;
64826;SDS011;51265;53.972;12.286;2023-09-18T05:03:36;18.75;;;14.38;;
64826;SDS011;51265;53.972;12.286;2023-09-18T05:06:03;16.40;;;13.88;;
64826;SDS011;51265;53.972;12.286;2023-09-18T05:08:30;24.55;;;19.40;;
64826;SDS011;51265;53.972;12.286;2023-09-18T05:10:57;62.03;;;50.33;;
64826;SDS011;51265;53.972;12.286;2023-09-18T05:13:23;33.38;;;26.05;;
64826;SDS011;51265;53.972;12.286;2023-09-18T05:15:50;24.88;;;21.80;;
64826;SDS011;51265;53.972;12.286;2023-09-18T05:18:16;24.58;;;16.65;;
64826;SDS011;51265;53.972;12.286;2023-09-18T05:20:42;16.17;;;14.40;;
64826;SDS011;51265;53.972;12.286;2023-09-18T05:23:08;15.50;;;13.73;;
64826;SDS011;51265;53.972;12.286;2023-09-18T05:25:35;15.82;;;13.18;;
64826;SDS011;51265;53.972;12.286;2023-09-18T05:28:03;16.13;;;12.70;;
64826;SDS011;51265;53.972;12.286;2023-09-18T05:30:32;18.55;;;13.13;;
64826;SDS011;51265;53.972;12.286;2023-09-18T05:33:05;17.02;;;13.00;;
64826;SDS011;51265;53.972;12.286;2023-09-18T05:35:39;15.20;;;12.40;;
64826;SDS011;51265;53.972;12.286;2023-09-18T05:38:07;13.70;;;11.50;;
64826;SDS011;51265;53.972;12.286;2023-09-18T05:40:35;14.32;;;11.80;;
64826;SDS011;51265;53.972;12.286;2023-09-18T05:43:01;13.15;;;11.85;;
64826;SDS011;51265;53.972;12.286;2023-09-18T05:45:28;13.98;;;11.82;;
64826;SDS011;51265;53.972;12.286;2023-09-18T05:47:55;18.00;;;14.73;;
64826;SDS011;51265;53.972;12.286;2023-09-18T05:50:28;34.85;;;28.80;;
64826;SDS011;51265;53.972;12.286;2023-09-18T05:52:55;16.23;;;13.70;;
64826;SDS011;51265;53.972;12.286;2023-09-18T05:55:26;13.93;;;12.50;;
64826;SDS011;51265;53.972;12.286;2023-09-18T05:57:53;13.02;;;10.70;;
64826;SDS011;51265;53.972;12.286;2023-09-18T06:00:20;11.77;;;10.52;;
64826;SDS011;51265;53.972;12.286;2023-09-18T06:02:47;10.43;;;8.98;;
64826;SDS011;51265;53.972;12.286;2023-09-18T06:05:14;11.77;;;10.57;;
64826;SDS011;51265;53.972;12.286;2023-09-18T06:07:41;12.23;;;9.90;;
64826;SDS011;51265;53.972;12.286;2023-09-18T06:10:08;11.88;;;10.57;;
64826;SDS011;51265;53.972;12.286;2023-09-18T06:12:34;10.70;;;9.48;;
64826;SDS011;51265;53.972;12.286;2023-09-18T06:15:01;12.05;;;9.70;;
64826;SDS011;51265;53.972;12.286;2023-09-18T06:17:27;9.75;;;8.75;;
64826;SDS011;51265;53.972;12.286;2023-09-18T06:19:53;13.38;;;9.52;;
64826;SDS011;51265;53.972;12.286;2023-09-18T06:22:19;10.52;;;8.80;;
64826;SDS011;51265;53.972;12.286;2023-09-18T06:24:45;11.70;;;7.95;;
64826;SDS011;51265;53.972;12.286;2023-09-18T06:27:12;13.23;;;7.65;;
64826;SDS011;51265;53.972;12.286;2023-09-18T06:29:38;9.38;;;8.05;;
64826;SDS011;51265;53.972;12.286;2023-09-18T06:32:05;8.77;;;7.13;;
64826;SDS011;51265;53.972;12.286;2023-09-18T06:34:31;10.75;;;7.63;;
64826;SDS011;51265;53.972;12.286;2023-09-18T06:36:58;8.50;;;7.18;;
64826;SDS011;51265;53.972;12.286;2023-09-18T06:39:24;7.97;;;7.18;;
64826;SDS011;51265;53.972;12.286;2023-09-18T06:41:52;8.73;;;6.75;;
64826;SDS011;51265;53.972;12.286;2023-09-18T06:44:19;8.52;;;6.90;;
64826;SDS011;51265;53.972;12.286;2023-09-18T06:46:45;9.05;;;6.80;;
64826;SDS011;51265;53.972;12.286;2023-09-18T06:49:11;11.85;;;6.43;;
64826;SDS011;51265;53.972;12.286;2023-09-18T06:51:37;9.73;;;6.80;;
64826;SDS011;51265;53.972;12.286;2023-09-18T06:54:03;8.00;;;6.60;;
64826;SDS011;51265;53.972;12.286;2023-09-18T06:56:30;9.10;;;6.57;;
64826;SDS011;51265;53.972;12.286;2023-09-18T06:58:56;9.52;;;6.60;;
64826;SDS011;51265;53.972;12.286;2023-09-18T07:01:22;7.80;;;6.90;;
64826;SDS011;51265;53.972;12.286;2023-09-18T07:03:50;9.10;;;6.82;;
64826;SDS011;51265;53.972;12.286;2023-09-18T07:06:16;9.05;;;7.20;;
64826;SDS011;51265;53.972;12.286;2023-09-18T07:08:44;8.35;;;6.78;;
64826;SDS011;51265;53.972;12.286;2023-09-18T07:11:10;8.98;;;6.63;;
64826;SDS011;51265;53.972;12.286;2023-09-18T07:13:38;10.15;;;6.63;;
64826;SDS011;51265;53.972;12.286;2023-09-18T07:16:05;25.35;;;20.45;;
64826;SDS011;51265;53.972;12.286;2023-09-18T07:18:32;17.17;;;14.57;;
64826;SDS011;51265;53.972;12.286;2023-09-18T07:20:58;8.65;;;6.95;;
64826;SDS011;51265;53.972;12.286;2023-09-18T07:23:25;8.50;;;5.93;;
64826;SDS011;51265;53.972;12.286;2023-09-18T07:25:51;8.65;;;5.63;;
64826;SDS011;51265;53.972;12.286;2023-09-18T07:28:17;7.38;;;5.50;;
64826;SDS011;51265;53.972;12.286;2023-09-18T07:30:45;6.38;;;5.47;;
64826;SDS011;51265;53.972;12.286;2023-09-18T07:33:12;6.72;;;6.03;;
64826;SDS011;51265;53.972;12.286;2023-09-18T07:35:47;7.75;;;5.50;;
64826;SDS011;51265;53.972;12.286;2023-09-18T07:38:13;6.25;;;5.18;;
64826;SDS011;51265;53.972;12.286;2023-09-18T07:40:40;6.72;;;5.50;;
64826;SDS011;51265;53.972;12.286;2023-09-18T07:43:06;11.93;;;5.18;;
64826;SDS011;51265;53.972;12.286;2023-09-18T07:45:33;7.22;;;5.25;;
64826;SDS011;51265;53.972;12.286;2023-09-18T07:48:00;5.32;;;4.82;;
64826;SDS011;51265;53.972;12.286;2023-09-18T07:50:26;10.05;;;4.90;;
64826;SDS011;51265;53.972;12.286;2023-09-18T07:52:52;5.53;;;4.45;;
64826;SDS011;51265;53.972;12.286;2023-09-18T07:55:19;6.38;;;4.90;;
64826;SDS011;51265;53.972;12.286;2023-09-18T07:57:45;6.97;;;4.80;;
64826;SDS011;51265;53.972;12.286;2023-09-18T08:00:12;6.80;;;5.47;;
64826;SDS011;51265;53.972;12.286;2023-09-18T08:02:39;5.57;;;4.55;;
64826;SDS011;51265;53.972;12.286;2023-09-18T08:05:06;6.63;;;4.90;;
64826;SDS011;51265;53.972;12.286;2023-09-18T08:07:34;11.70;;;5.15;;
64826;SDS011;51265;53.972;12.286;2023-09-18T08:10:03;7.30;;;5.15;;
64826;SDS011;51265;53.972;12.286;2023-09-18T08:12:35;10.75;;;8.18;;
64826;SDS011;51265;53.972;12.286;2023-09-18T08:15:02;8.05;;;5.07;;
64826;SDS011;51265;53.972;12.286;2023-09-18T08:17:28;8.43;;;4.35;;
64826;SDS011;51265;53.972;12.286;2023-09-18T08:19:54;5.43;;;4.18;;
64826;SDS011;51265;53.972;12.286;2023-09-18T08:22:21;6.30;;;4.00;;
64826;SDS011;51265;53.972;12.286;2023-09-18T08:24:48;7.22;;;4.38;;
64826;SDS011;51265;53.972;12.286;2023-09-18T08:27:14;4.43;;;4.03;;
64826;SDS011;51265;53.972;12.286;2023-09-18T08:29:44;7.00;;;4.18;;
64826;SDS011;51265;53.972;12.286;2023-09-18T08:32:11;6.72;;;4.10;;
64826;SDS011;51265;53.972;12.286;2023-09-18T08:34:37;5.32;;;3.80;;
64826;SDS011;51265;53.972;12.286;2023-09-18T08:37:04;4.65;;;3.72;;
64826;SDS011;51265;53.972;12.286;2023-09-18T08:39:30;5.85;;;3.85;;
64826;SDS011;51265;53.972;12.286;2023-09-18T08:41:59;3.83;;;3.42;;
64826;SDS011;51265;53.972;12.286;2023-09-18T08:44:29;5.63;;;3.55;;
64826;SDS011;51265;53.972;12.286;2023-09-18T08:46:57;8.23;;;3.72;;
64826;SDS011;51265;53.972;12.286;2023-09-18T08:49:23;4.43;;;3.58;;
64826;SDS011;51265;53.972;12.286;2023-09-18T08:51:51;4.47;;;3.85;;
64826;SDS011;51265;53.972;12.286;2023-09-18T08:54:21;5.00;;;3.60;;
64826;SDS011;51265;53.972;12.286;2023-09-18T08:56:52;8.07;;;3.88;;
64826;SDS011;51265;53.972;12.286;2023-09-18T08:59:21;5.47;;;3.78;;
64826;SDS011;51265;53.972;12.286;2023-09-18T09:01:48;4.18;;;3.45;;
64826;SDS011;51265;53.972;12.286;2023-09-18T09:04:14;4.63;;;3.20;;
64826;SDS011;51265;53.972;12.286;2023-09-18T09:06:40;4.68;;;3.60;;
64826;SDS011;51265;53.972;12.286;2023-09-18T09:09:07;5.78;;;3.20;;
64826;SDS011;51265;53.972;12.286;2023-09-18T09:11:33;3.97;;;3.28;;
64826;SDS011;51265;53.972;12.286;2023-09-18T09:14:13;3.55;;;3.17;;
64826;SDS011;51265;53.972;12.286;2023-09-18T09:19:28;5.18;;;3.08;;
64826;SDS011;51265;53.972;12.286;2023-09-18T09:21:58;6.55;;;3.40;;
64826;SDS011;51265;53.972;12.286;2023-09-18T09:24:41;8.10;;;3.30;;
64826;SDS011;51265;53.972;12.286;2023-09-18T09:27:09;3.35;;;3.05;;
64826;SDS011;51265;53.972;12.286;2023-09-18T09:29:37;6.75;;;3.45;;
64826;SDS011;51265;53.972;12.286;2023-09-18T09:32:16;4.50;;;2.75;;
64826;SDS011;51265;53.972;12.286;2023-09-18T09:34:44;4.20;;;3.10;;
64826;SDS011;51265;53.972;12.286;2023-09-18T09:37:12;3.50;;;3.10;;
64826;SDS011;51265;53.972;12.286;2023-09-18T09:39:46;3.63;;;3.13;;
64826;SDS011;51265;53.972;12.286;2023-09-18T09:42:16;3.88;;;2.95;;
64826;SDS011;51265;53.972;12.286;2023-09-18T09:45:00;3.50;;;2.95;;
64826;SDS011;51265;53.972;12.286;2023-09-18T09:47:33;8.63;;;3.13;;
64826;SDS011;51265;53.972;12.286;2023-09-18T09:50:08;5.45;;;3.00;;
64826;SDS011;51265;53.972;12.286;2023-09-18T09:52:42;3.78;;;2.53;;
64826;SDS011;51265;53.972;12.286;2023-09-18T09:55:20;3.22;;;2.55;;
64826;SDS011;51265;53.972;12.286;2023-09-18T09:57:52;4.88;;;3.15;;
64826;SDS011;51265;53.972;12.286;2023-09-18T10:00:23;4.28;;;2.30;;
64826;SDS011;51265;53.972;12.286;2023-09-18T10:02:59;3.72;;;2.47;;
64826;SDS011;51265;53.972;12.286;2023-09-18T10:05:30;3.95;;;2.72;;
64826;SDS011;51265;53.972;12.286;2023-09-18T10:07:59;4.95;;;3.10;;
64826;SDS011;51265;53.972;12.286;2023-09-18T10:10:28;6.10;;;2.78;;
64826;SDS011;51265;53.972;12.286;2023-09-18T10:12:57;2.60;;;2.40;;
64826;SDS011;51265;53.972;12.286;2023-09-18T10:15:28;6.60;;;2.88;;
64826;SDS011;51265;53.972;12.286;2023-09-18T10:17:59;5.43;;;2.88;;
64826;SDS011;51265;53.972;12.286;2023-09-18T10:20:28;3.22;;;2.63;;
64826;SDS011;51265;53.972;12.286;2023-09-18T10:22:56;5.72;;;3.70;;
64826;SDS011;51265;53.972;12.286;2023-09-18T10:25:26;7.40;;;2.95;;
64826;SDS011;51265;53.972;12.286;2023-09-18T10:27:57;4.78;;;2.70;;
64826;SDS011;51265;53.972;12.286;2023-09-18T10:30:27;6.45;;;3.03;;
64826;SDS011;51265;53.972;12.286;2023-09-18T10:32:55;5.40;;;2.90;;
64826;SDS011;51265;53.972;12.286;2023-09-18T10:35:23;2.92;;;2.63;;
64826;SDS011;51265;53.972;12.286;2023-09-18T10:37:49;4.40;;;2.20;;
64826;SDS011;51265;53.972;12.286;2023-09-18T10:40:20;2.80;;;2.50;;
64826;SDS011;51265;53.972;12.286;2023-09-18T10:42:47;2.83;;;2.53;;
64826;SDS011;51265;53.972;12.286;2023-09-18T10:45:16;7.63;;;2.55;;
64826;SDS011;51265;53.972;12.286;2023-09-18T10:47:44;3.33;;;2.53;;
64826;SDS011;51265;53.972;12.286;2023-09-18T10:50:15;8.43;;;2.83;;
64826;SDS011;51265;53.972;12.286;2023-09-18T10:52:52;5.72;;;2.60;;
64826;SDS011;51265;53.972;12.286;2023-09-18T10:55:18;3.55;;;2.55;;
64826;SDS011;51265;53.972;12.286;2023-09-18T10:57:50;4.40;;;2.55;;
64826;SDS011;51265;53.972;12.286;2023-09-18T11:00:24;5.70;;;2.70;;
64826;SDS011;51265;53.972;12.286;2023-09-18T11:02:51;8.77;;;2.60;;
64826;SDS011;51265;53.972;12.286;2023-09-18T11:05:30;4.65;;;2.70;;
64826;SDS011;51265;53.972;12.286;2023-09-18T11:11:02;2.70;;;2.50;;
64826;SDS011;51265;53.972;12.286;2023-09-18T11:13:38;4.55;;;2.58;;
64826;SDS011;51265;53.972;12.286;2023-09-18T11:16:19;3.58;;;2.50;;
64826;SDS011;51265;53.972;12.286;2023-09-18T11:19:05;3.72;;;2.20;;
64826;SDS011;51265;53.972;12.286;2023-09-18T11:21:34;3.90;;;2.60;;
64826;SDS011;51265;53.972;12.286;2023-09-18T11:24:01;5.60;;;2.42;;
64826;SDS011;51265;53.972;12.286;2023-09-18T11:26:30;5.00;;;2.45;;
64826;SDS011;51265;53.972;12.286;2023-09-18T11:29:04;7.25;;;2.78;;
64826;SDS011;51265;53.972;12.286;2023-09-18T11:31:48;6.13;;;2.83;;
64826;SDS011;51265;53.972;12.286;2023-09-18T11:34:20;3.83;;;2.80;;
64826;SDS011;51265;53.972;12.286;2023-09-18T11:36:48;8.88;;;2.53;;
64826;SDS011;51265;53.972;12.286;2023-09-18T11:42:21;8.02;;;3.28;;
64826;SDS011;51265;53.972;12.286;2023-09-18T11:44:54;3.78;;;2.70;;
64826;SDS011;51265;53.972;12.286;2023-09-18T11:47:25;4.13;;;3.00;;
64826;SDS011;51265;53.972;12.286;2023-09-18T11:49:57;7.47;;;2.75;;
64826;SDS011;51265;53.972;12.286;2023-09-18T11:52:25;6.13;;;2.83;;
64826;SDS011;51265;53.972;12.286;2023-09-18T11:54:53;4.57;;;3.20;;
64826;SDS011;51265;53.972;12.286;2023-09-18T11:57:23;3.85;;;2.90;;
64826;SDS011;51265;53.972;12.286;2023-09-18T11:59:49;5.13;;;2.85;;
64826;SDS011;51265;53.972;12.286;2023-09-18T12:02:29;7.20;;;3.28;;
64826;SDS011;51265;53.972;12.286;2023-09-18T12:05:25;4.47;;;3.17;;
64826;SDS011;51265;53.972;12.286;2023-09-18T12:07:52;5.13;;;2.75;;
64826;SDS011;51265;53.972;12.286;2023-09-18T12:10:18;5.18;;;3.30;;
64826;SDS011;51265;53.972;12.286;2023-09-18T12:12:49;4.82;;;2.70;;
64826;SDS011;51265;53.972;12.286;2023-09-18T12:15:19;4.07;;;2.90;;
64826;SDS011;51265;53.972;12.286;2023-09-18T12:17:45;3.97;;;2.97;;
64826;SDS011;51265;53.972;12.286;2023-09-18T12:20:18;3.67;;;3.20;;
64826;SDS011;51265;53.972;12.286;2023-09-18T12:25:15;5.50;;;3.03;;
64826;SDS011;51265;53.972;12.286;2023-09-18T12:27:43;4.03;;;2.85;;
64826;SDS011;51265;53.972;12.286;2023-09-18T12:30:09;5.47;;;3.05;;
64826;SDS011;51265;53.972;12.286;2023-09-18T12:32:38;5.03;;;2.88;;
64826;SDS011;51265;53.972;12.286;2023-09-18T12:35:08;4.13;;;2.92;;
64826;SDS011;51265;53.972;12.286;2023-09-18T12:37:39;4.72;;;2.83;;
64826;SDS011;51265;53.972;12.286;2023-09-18T12:40:22;2.83;;;2.60;;
64826;SDS011;51265;53.972;12.286;2023-09-18T12:42:49;3.28;;;2.42;;
64826;SDS011;51265;53.972;12.286;2023-09-18T12:45:16;4.18;;;2.75;;
64826;SDS011;51265;53.972;12.286;2023-09-18T12:47:43;4.18;;;2.88;;
64826;SDS011;51265;53.972;12.286;2023-09-18T12:50:12;4.20;;;2.90;;
64826;SDS011;51265;53.972;12.286;2023-09-18T12:52:39;3.60;;;2.70;;
64826;SDS011;51265;53.972;12.286;2023-09-18T12:55:06;4.78;;;2.63;;
64826;SDS011;51265;53.972;12.286;2023-09-18T12:57:32;5.80;;;2.50;;
64826;SDS011;51265;53.972;12.286;2023-09-18T13:00:27;6.93;;;2.80;;
64826;SDS011;51265;53.972;12.286;2023-09-18T13:02:53;9.57;;;2.75;;
64826;SDS011;51265;53.972;12.286;2023-09-18T13:05:22;6.80;;;2.63;;
64826;SDS011;51265;53.972;12.286;2023-09-18T13:07:52;5.45;;;3.00;;
64826;SDS011;51265;53.972;12.286;2023-09-18T13:10:19;8.05;;;3.22;;
64826;SDS011;51265;53.972;12.286;2023-09-18T13:12:48;6.70;;;3.00;;
64826;SDS011;51265;53.972;12.286;2023-09-18T13:15:24;6.10;;;3.03;;
64826;SDS011;51265;53.972;12.286;2023-09-18T13:17:53;5.80;;;2.85;;
64826;SDS011;51265;53.972;12.286;2023-09-18T13:20:24;5.95;;;3.10;;
64826;SDS011;51265;53.972;12.286;2023-09-18T13:22:54;4.22;;;2.65;;
64826;SDS011;51265;53.972;12.286;2023-09-18T13:25:31;8.40;;;3.40;;
64826;SDS011;51265;53.972;12.286;2023-09-18T13:28:02;7.25;;;3.17;;
64826;SDS011;51265;53.972;12.286;2023-09-18T13:30:30;6.03;;;2.85;;
64826;SDS011;51265;53.972;12.286;2023-09-18T13:33:04;7.72;;;3.30;;
64826;SDS011;51265;53.972;12.286;2023-09-18T13:35:32;5.05;;;2.88;;
64826;SDS011;51265;53.972;12.286;2023-09-18T13:37:59;6.03;;;3.13;;
64826;SDS011;51265;53.972;12.286;2023-09-18T13:40:25;5.60;;;3.33;;
64826;SDS011;51265;53.972;12.286;2023-09-18T13:42:52;3.78;;;3.08;;
64826;SDS011;51265;53.972;12.286;2023-09-18T13:45:19;4.78;;;3.08;;
64826;SDS011;51265;53.972;12.286;2023-09-18T13:47:46;6.38;;;2.65;;
64826;SDS011;51265;53.972;12.286;2023-09-18T13:50:15;7.10;;;3.30;;
64826;SDS011;51265;53.972;12.286;2023-09-18T13:52:41;4.97;;;3.13;;
64826;SDS011;51265;53.972;12.286;2023-09-18T13:55:07;7.43;;;3.00;;
64826;SDS011;51265;53.972;12.286;2023-09-18T13:57:35;6.18;;;3.17;;
64826;SDS011;51265;53.972;12.286;2023-09-18T14:00:02;3.90;;;2.88;;
64826;SDS011;51265;53.972;12.286;2023-09-18T14:02:38;7.20;;;3.25;;
64826;SDS011;51265;53.972;12.286;2023-09-18T14:05:05;5.63;;;2.97;;
64826;SDS011;51265;53.972;12.286;2023-09-18T14:07:32;5.63;;;3.10;;
64826;SDS011;51265;53.972;12.286;2023-09-18T14:09:58;10.75;;;3.10;;
64826;SDS011;51265;53.972;12.286;2023-09-18T14:12:25;6.63;;;2.95;;
64826;SDS011;51265;53.972;12.286;2023-09-18T14:14:51;6.72;;;3.55;;
64826;SDS011;51265;53.972;12.286;2023-09-18T14:17:17;4.50;;;3.08;;
64826;SDS011;51265;53.972;12.286;2023-09-18T14:19:47;4.95;;;3.15;;
64826;SDS011;51265;53.972;12.286;2023-09-18T14:22:14;6.00;;;3.08;;
64826;SDS011;51265;53.972;12.286;2023-09-18T14:24:40;7.15;;;3.03;;
64826;SDS011;51265;53.972;12.286;2023-09-18T14:27:07;6.85;;;3.10;;
64826;SDS011;51265;53.972;12.286;2023-09-18T14:29:33;4.55;;;2.95;;
64826;SDS011;51265;53.972;12.286;2023-09-18T14:32:00;8.15;;;3.00;;
64826;SDS011;51265;53.972;12.286;2023-09-18T14:34:26;9.70;;;3.05;;
64826;SDS011;51265;53.972;12.286;2023-09-18T14:36:53;4.72;;;3.17;;
64826;SDS011;51265;53.972;12.286;2023-09-18T14:39:19;8.07;;;3.40;;
64826;SDS011;51265;53.972;12.286;2023-09-18T14:41:45;9.40;;;2.95;;
64826;SDS011;51265;53.972;12.286;2023-09-18T14:44:13;5.97;;;2.70;;
64826;SDS011;51265;53.972;12.286;2023-09-18T14:46:39;5.00;;;3.00;;